Pennellville, New York
Current Conditions -  °F | °C
As of 1:54 AM on Sunday 26 Oct 2014 (Local Time) from KFZY Reporting Station
Overcast Overcast  
Wind Chill: 53°   Ceiling: 6000
Heat Index: 53°   Visibility: 10mi
Dew Point: 37°   Wind: 20mph
Humidity: 55%   Direction: 300°WNW
Pressure: 29.56"   Gusts: 26mph
Location:  43.28°N, 76.27°W
Report Text: KFZY 260554Z AUTO 30017G23KT 10SM OVC060 12/03 A2956 RMK AO2 PK WND 30026/0528 SLP009 T01170028 10133 20111 58002
Loading
Personal Weather Stations






























Interactive Weather Map
Tropical Storm Tracking
New forecast layout! Learn more

10-Day Weather Forecast

Advertisements
Track Severe Weather on mobile